Terminal Aerodrome Forecast
Issued by NWS

Home | Current Version | Previous Version | Text Only | Print | Product List | Glossary Off
Versions: 1 2 3 4 5 6 7 8 9 10 11 12 13 14 15 16 17 18

000
FTUS43 KBIS 241100
TAFJMS
TAF
KJMS 241138Z 2412/2512 27010KT P6SM SCT180 BKN220
     FM241400 30008KT P6SM OVC035
     FM242000 36008KT 3SM -RA BR OVC012
     FM250000 33011KT 3SM -SN BR OVC006=

USA.gov is the U.S. government's official web portal to all federal, state and local government web resources and services.